sensor_id;sensor_type;location;lat;lon;timestamp;P1;durP1;ratioP1;P2;durP2;ratioP2
9214;SDS011;4642;51.364;6.788;2023-07-16T00:00:10;5.10;;;1.90;;
9214;SDS011;4642;51.364;6.788;2023-07-16T00:02:37;3.97;;;1.83;;
9214;SDS011;4642;51.364;6.788;2023-07-16T00:05:03;5.77;;;1.93;;
9214;SDS011;4642;51.364;6.788;2023-07-16T00:07:29;4.13;;;1.90;;
9214;SDS011;4642;51.364;6.788;2023-07-16T00:09:54;4.57;;;1.73;;
9214;SDS011;4642;51.364;6.788;2023-07-16T00:12:20;5.87;;;1.90;;
9214;SDS011;4642;51.364;6.788;2023-07-16T00:14:46;4.50;;;1.70;;
9214;SDS011;4642;51.364;6.788;2023-07-16T00:17:12;8.50;;;2.90;;
9214;SDS011;4642;51.364;6.788;2023-07-16T00:19:37;4.77;;;1.90;;
9214;SDS011;4642;51.364;6.788;2023-07-16T00:22:03;4.13;;;1.90;;
9214;SDS011;4642;51.364;6.788;2023-07-16T00:24:29;6.93;;;1.90;;
9214;SDS011;4642;51.364;6.788;2023-07-16T00:26:54;3.60;;;2.03;;
9214;SDS011;4642;51.364;6.788;2023-07-16T00:29:20;5.17;;;1.97;;
9214;SDS011;4642;51.364;6.788;2023-07-16T00:31:45;9.63;;;2.07;;
9214;SDS011;4642;51.364;6.788;2023-07-16T00:34:11;7.43;;;2.20;;
9214;SDS011;4642;51.364;6.788;2023-07-16T00:36:38;5.53;;;1.90;;
9214;SDS011;4642;51.364;6.788;2023-07-16T00:39:03;4.30;;;2.17;;
9214;SDS011;4642;51.364;6.788;2023-07-16T00:41:29;6.30;;;2.03;;
9214;SDS011;4642;51.364;6.788;2023-07-16T00:43:54;9.27;;;2.07;;
9214;SDS011;4642;51.364;6.788;2023-07-16T00:46:20;6.50;;;2.03;;
9214;SDS011;4642;51.364;6.788;2023-07-16T00:48:46;3.23;;;1.77;;
9214;SDS011;4642;51.364;6.788;2023-07-16T00:51:12;4.50;;;1.77;;
9214;SDS011;4642;51.364;6.788;2023-07-16T00:53:40;4.93;;;1.73;;
9214;SDS011;4642;51.364;6.788;2023-07-16T00:56:07;7.57;;;2.20;;
9214;SDS011;4642;51.364;6.788;2023-07-16T00:58:33;7.87;;;1.80;;
9214;SDS011;4642;51.364;6.788;2023-07-16T01:00:59;8.10;;;2.17;;
9214;SDS011;4642;51.364;6.788;2023-07-16T01:03:24;5.33;;;1.77;;
9214;SDS011;4642;51.364;6.788;2023-07-16T01:08:32;3.77;;;1.93;;
9214;SDS011;4642;51.364;6.788;2023-07-16T01:11:04;4.67;;;2.23;;
9214;SDS011;4642;51.364;6.788;2023-07-16T01:13:31;5.23;;;2.60;;
9214;SDS011;4642;51.364;6.788;2023-07-16T01:15:57;8.53;;;2.23;;
9214;SDS011;4642;51.364;6.788;2023-07-16T01:18:23;5.83;;;2.30;;
9214;SDS011;4642;51.364;6.788;2023-07-16T01:20:48;3.93;;;2.17;;
9214;SDS011;4642;51.364;6.788;2023-07-16T01:23:30;4.60;;;2.00;;
9214;SDS011;4642;51.364;6.788;2023-07-16T01:31:32;3.27;;;1.50;;
9214;SDS011;4642;51.364;6.788;2023-07-16T01:33:59;4.53;;;1.80;;
9214;SDS011;4642;51.364;6.788;2023-07-16T01:36:25;2.10;;;1.77;;
9214;SDS011;4642;51.364;6.788;2023-07-16T01:38:53;9.00;;;2.23;;
9214;SDS011;4642;51.364;6.788;2023-07-16T01:41:18;6.57;;;1.73;;
9214;SDS011;4642;51.364;6.788;2023-07-16T01:43:44;4.40;;;1.67;;
9214;SDS011;4642;51.364;6.788;2023-07-16T01:46:10;5.20;;;2.10;;
9214;SDS011;4642;51.364;6.788;2023-07-16T01:48:36;8.83;;;1.80;;
9214;SDS011;4642;51.364;6.788;2023-07-16T01:51:03;6.83;;;2.20;;
9214;SDS011;4642;51.364;6.788;2023-07-16T01:53:29;4.00;;;2.27;;
9214;SDS011;4642;51.364;6.788;2023-07-16T01:55:56;4.17;;;1.73;;
9214;SDS011;4642;51.364;6.788;2023-07-16T01:58:22;3.43;;;2.03;;
9214;SDS011;4642;51.364;6.788;2023-07-16T02:00:49;5.47;;;2.20;;
9214;SDS011;4642;51.364;6.788;2023-07-16T02:03:15;7.30;;;3.10;;
9214;SDS011;4642;51.364;6.788;2023-07-16T02:05:40;8.67;;;3.00;;
9214;SDS011;4642;51.364;6.788;2023-07-16T02:08:06;10.00;;;3.03;;
9214;SDS011;4642;51.364;6.788;2023-07-16T02:10:32;9.07;;;3.30;;
9214;SDS011;4642;51.364;6.788;2023-07-16T02:12:57;9.63;;;3.07;;
9214;SDS011;4642;51.364;6.788;2023-07-16T02:15:23;6.97;;;2.87;;
9214;SDS011;4642;51.364;6.788;2023-07-16T02:17:48;6.73;;;2.30;;
9214;SDS011;4642;51.364;6.788;2023-07-16T02:20:14;5.37;;;2.40;;
9214;SDS011;4642;51.364;6.788;2023-07-16T02:22:39;4.33;;;2.57;;
9214;SDS011;4642;51.364;6.788;2023-07-16T02:25:05;3.47;;;2.30;;
9214;SDS011;4642;51.364;6.788;2023-07-16T02:27:31;6.27;;;2.47;;
9214;SDS011;4642;51.364;6.788;2023-07-16T02:29:57;9.07;;;3.00;;
9214;SDS011;4642;51.364;6.788;2023-07-16T02:32:23;12.77;;;2.60;;
9214;SDS011;4642;51.364;6.788;2023-07-16T02:34:48;7.87;;;2.90;;
9214;SDS011;4642;51.364;6.788;2023-07-16T02:37:14;6.03;;;2.90;;
9214;SDS011;4642;51.364;6.788;2023-07-16T02:39:41;10.73;;;2.50;;
9214;SDS011;4642;51.364;6.788;2023-07-16T02:42:07;5.77;;;2.73;;
9214;SDS011;4642;51.364;6.788;2023-07-16T02:44:33;5.60;;;2.40;;
9214;SDS011;4642;51.364;6.788;2023-07-16T02:47:00;4.83;;;2.10;;
9214;SDS011;4642;51.364;6.788;2023-07-16T02:49:26;5.27;;;2.07;;
9214;SDS011;4642;51.364;6.788;2023-07-16T02:51:52;3.90;;;2.07;;
9214;SDS011;4642;51.364;6.788;2023-07-16T02:54:17;7.63;;;2.23;;
9214;SDS011;4642;51.364;6.788;2023-07-16T02:56:43;4.97;;;2.60;;
9214;SDS011;4642;51.364;6.788;2023-07-16T02:59:08;3.90;;;1.97;;
9214;SDS011;4642;51.364;6.788;2023-07-16T03:01:34;7.37;;;1.90;;
9214;SDS011;4642;51.364;6.788;2023-07-16T03:03:59;5.93;;;2.23;;
9214;SDS011;4642;51.364;6.788;2023-07-16T03:06:25;7.20;;;2.37;;
9214;SDS011;4642;51.364;6.788;2023-07-16T03:08:50;4.70;;;2.07;;
9214;SDS011;4642;51.364;6.788;2023-07-16T03:11:16;6.23;;;2.03;;
9214;SDS011;4642;51.364;6.788;2023-07-16T03:13:42;6.47;;;1.83;;
9214;SDS011;4642;51.364;6.788;2023-07-16T03:16:07;8.37;;;1.80;;
9214;SDS011;4642;51.364;6.788;2023-07-16T03:18:33;5.47;;;1.73;;
9214;SDS011;4642;51.364;6.788;2023-07-16T03:20:58;5.73;;;1.73;;
9214;SDS011;4642;51.364;6.788;2023-07-16T03:23:24;6.57;;;1.90;;
9214;SDS011;4642;51.364;6.788;2023-07-16T03:25:51;10.43;;;2.40;;
9214;SDS011;4642;51.364;6.788;2023-07-16T03:28:16;8.93;;;1.60;;
9214;SDS011;4642;51.364;6.788;2023-07-16T03:30:48;3.63;;;1.87;;
9214;SDS011;4642;51.364;6.788;2023-07-16T03:33:15;6.23;;;2.03;;
9214;SDS011;4642;51.364;6.788;2023-07-16T03:35:42;7.17;;;2.10;;
9214;SDS011;4642;51.364;6.788;2023-07-16T03:38:09;5.40;;;2.00;;
9214;SDS011;4642;51.364;6.788;2023-07-16T03:40:35;6.83;;;1.87;;
9214;SDS011;4642;51.364;6.788;2023-07-16T03:43:00;8.67;;;2.03;;
9214;SDS011;4642;51.364;6.788;2023-07-16T03:45:26;4.97;;;1.90;;
9214;SDS011;4642;51.364;6.788;2023-07-16T03:47:51;3.80;;;2.17;;
9214;SDS011;4642;51.364;6.788;2023-07-16T03:50:17;4.27;;;1.73;;
9214;SDS011;4642;51.364;6.788;2023-07-16T03:52:43;4.00;;;1.80;;
9214;SDS011;4642;51.364;6.788;2023-07-16T03:55:09;5.47;;;1.80;;
9214;SDS011;4642;51.364;6.788;2023-07-16T03:57:35;8.53;;;2.20;;
9214;SDS011;4642;51.364;6.788;2023-07-16T04:00:01;11.67;;;2.33;;
9214;SDS011;4642;51.364;6.788;2023-07-16T04:02:29;3.30;;;1.70;;
9214;SDS011;4642;51.364;6.788;2023-07-16T04:04:54;3.90;;;1.67;;
9214;SDS011;4642;51.364;6.788;2023-07-16T04:07:20;7.53;;;2.20;;
9214;SDS011;4642;51.364;6.788;2023-07-16T04:09:46;7.93;;;2.33;;
9214;SDS011;4642;51.364;6.788;2023-07-16T04:12:12;4.80;;;2.00;;
9214;SDS011;4642;51.364;6.788;2023-07-16T04:14:38;7.37;;;2.30;;
9214;SDS011;4642;51.364;6.788;2023-07-16T04:17:03;8.43;;;2.50;;
9214;SDS011;4642;51.364;6.788;2023-07-16T04:19:29;8.77;;;2.30;;
9214;SDS011;4642;51.364;6.788;2023-07-16T04:21:54;8.43;;;2.23;;
9214;SDS011;4642;51.364;6.788;2023-07-16T04:24:20;6.80;;;2.80;;
9214;SDS011;4642;51.364;6.788;2023-07-16T04:26:46;5.67;;;2.13;;
9214;SDS011;4642;51.364;6.788;2023-07-16T04:29:11;6.60;;;2.20;;
9214;SDS011;4642;51.364;6.788;2023-07-16T04:31:37;7.00;;;2.47;;
9214;SDS011;4642;51.364;6.788;2023-07-16T04:34:02;7.50;;;2.13;;
9214;SDS011;4642;51.364;6.788;2023-07-16T04:36:28;5.20;;;1.93;;
9214;SDS011;4642;51.364;6.788;2023-07-16T04:38:53;8.17;;;2.30;;
9214;SDS011;4642;51.364;6.788;2023-07-16T04:41:19;6.00;;;2.30;;
9214;SDS011;4642;51.364;6.788;2023-07-16T04:43:44;7.93;;;2.43;;
9214;SDS011;4642;51.364;6.788;2023-07-16T04:46:10;6.93;;;2.47;;
9214;SDS011;4642;51.364;6.788;2023-07-16T04:48:36;2.60;;;2.00;;
9214;SDS011;4642;51.364;6.788;2023-07-16T04:51:02;5.27;;;2.40;;
9214;SDS011;4642;51.364;6.788;2023-07-16T04:53:28;5.90;;;2.30;;
9214;SDS011;4642;51.364;6.788;2023-07-16T04:55:53;7.53;;;2.37;;
9214;SDS011;4642;51.364;6.788;2023-07-16T04:58:19;5.97;;;2.00;;
9214;SDS011;4642;51.364;6.788;2023-07-16T05:00:44;5.93;;;2.23;;
9214;SDS011;4642;51.364;6.788;2023-07-16T05:03:10;14.67;;;2.60;;
9214;SDS011;4642;51.364;6.788;2023-07-16T05:05:36;6.37;;;2.43;;
9214;SDS011;4642;51.364;6.788;2023-07-16T05:08:01;5.37;;;2.27;;
9214;SDS011;4642;51.364;6.788;2023-07-16T05:10:27;7.47;;;2.93;;
9214;SDS011;4642;51.364;6.788;2023-07-16T05:12:53;6.27;;;2.40;;
9214;SDS011;4642;51.364;6.788;2023-07-16T05:15:19;8.50;;;2.30;;
9214;SDS011;4642;51.364;6.788;2023-07-16T05:17:44;7.93;;;2.50;;
9214;SDS011;4642;51.364;6.788;2023-07-16T05:20:10;6.53;;;2.50;;
9214;SDS011;4642;51.364;6.788;2023-07-16T05:22:36;8.90;;;2.50;;
9214;SDS011;4642;51.364;6.788;2023-07-16T05:25:02;9.33;;;2.37;;
9214;SDS011;4642;51.364;6.788;2023-07-16T05:27:28;11.50;;;2.47;;
9214;SDS011;4642;51.364;6.788;2023-07-16T05:29:53;6.90;;;2.63;;
9214;SDS011;4642;51.364;6.788;2023-07-16T05:32:19;10.10;;;2.60;;
9214;SDS011;4642;51.364;6.788;2023-07-16T05:34:45;7.67;;;2.50;;
9214;SDS011;4642;51.364;6.788;2023-07-16T05:37:11;9.13;;;2.57;;
9214;SDS011;4642;51.364;6.788;2023-07-16T05:39:37;7.33;;;2.90;;
9214;SDS011;4642;51.364;6.788;2023-07-16T05:42:02;9.97;;;2.73;;
9214;SDS011;4642;51.364;6.788;2023-07-16T05:44:29;7.67;;;2.77;;
9214;SDS011;4642;51.364;6.788;2023-07-16T05:46:54;8.80;;;3.00;;
9214;SDS011;4642;51.364;6.788;2023-07-16T05:49:20;8.07;;;2.80;;
9214;SDS011;4642;51.364;6.788;2023-07-16T05:51:45;7.13;;;2.77;;
9214;SDS011;4642;51.364;6.788;2023-07-16T05:54:11;7.20;;;2.83;;
9214;SDS011;4642;51.364;6.788;2023-07-16T05:56:36;8.73;;;2.67;;
9214;SDS011;4642;51.364;6.788;2023-07-16T05:59:02;6.80;;;3.20;;
9214;SDS011;4642;51.364;6.788;2023-07-16T06:01:27;8.47;;;3.73;;
9214;SDS011;4642;51.364;6.788;2023-07-16T06:03:53;9.13;;;2.70;;
9214;SDS011;4642;51.364;6.788;2023-07-16T06:06:19;11.70;;;3.27;;
9214;SDS011;4642;51.364;6.788;2023-07-16T06:08:45;5.10;;;2.63;;
9214;SDS011;4642;51.364;6.788;2023-07-16T06:11:11;11.90;;;3.70;;
9214;SDS011;4642;51.364;6.788;2023-07-16T06:13:37;5.37;;;3.03;;
9214;SDS011;4642;51.364;6.788;2023-07-16T06:16:03;6.93;;;2.90;;
9214;SDS011;4642;51.364;6.788;2023-07-16T06:18:28;11.60;;;3.63;;
9214;SDS011;4642;51.364;6.788;2023-07-16T06:20:54;9.10;;;3.63;;
9214;SDS011;4642;51.364;6.788;2023-07-16T06:23:20;6.80;;;3.13;;
9214;SDS011;4642;51.364;6.788;2023-07-16T06:25:46;7.63;;;3.50;;
9214;SDS011;4642;51.364;6.788;2023-07-16T06:28:13;8.20;;;3.30;;
9214;SDS011;4642;51.364;6.788;2023-07-16T06:30:39;6.77;;;3.23;;
9214;SDS011;4642;51.364;6.788;2023-07-16T06:33:05;7.77;;;3.90;;
9214;SDS011;4642;51.364;6.788;2023-07-16T06:35:30;8.53;;;3.27;;
9214;SDS011;4642;51.364;6.788;2023-07-16T06:37:56;7.53;;;3.60;;
9214;SDS011;4642;51.364;6.788;2023-07-16T06:40:23;7.43;;;3.77;;
9214;SDS011;4642;51.364;6.788;2023-07-16T06:42:50;12.87;;;3.93;;
9214;SDS011;4642;51.364;6.788;2023-07-16T06:45:17;9.73;;;4.13;;
9214;SDS011;4642;51.364;6.788;2023-07-16T06:47:43;10.60;;;4.23;;
9214;SDS011;4642;51.364;6.788;2023-07-16T06:50:08;8.00;;;4.07;;
9214;SDS011;4642;51.364;6.788;2023-07-16T06:52:34;7.33;;;4.10;;
9214;SDS011;4642;51.364;6.788;2023-07-16T06:55:00;8.17;;;4.00;;
9214;SDS011;4642;51.364;6.788;2023-07-16T06:57:26;11.40;;;4.30;;
9214;SDS011;4642;51.364;6.788;2023-07-16T06:59:51;13.07;;;4.00;;
9214;SDS011;4642;51.364;6.788;2023-07-16T07:02:17;12.93;;;4.40;;
9214;SDS011;4642;51.364;6.788;2023-07-16T07:04:43;8.77;;;3.80;;
9214;SDS011;4642;51.364;6.788;2023-07-16T07:07:09;8.63;;;3.70;;
9214;SDS011;4642;51.364;6.788;2023-07-16T07:09:35;9.07;;;3.70;;
9214;SDS011;4642;51.364;6.788;2023-07-16T07:12:01;11.83;;;4.20;;
9214;SDS011;4642;51.364;6.788;2023-07-16T07:14:26;8.00;;;3.63;;
9214;SDS011;4642;51.364;6.788;2023-07-16T07:16:52;10.67;;;4.53;;
9214;SDS011;4642;51.364;6.788;2023-07-16T07:19:17;11.97;;;4.27;;
9214;SDS011;4642;51.364;6.788;2023-07-16T07:21:43;10.50;;;4.60;;
9214;SDS011;4642;51.364;6.788;2023-07-16T07:24:09;9.57;;;4.07;;
9214;SDS011;4642;51.364;6.788;2023-07-16T07:26:34;12.83;;;4.33;;
9214;SDS011;4642;51.364;6.788;2023-07-16T07:29:00;8.90;;;3.60;;
9214;SDS011;4642;51.364;6.788;2023-07-16T07:31:25;7.33;;;3.90;;
9214;SDS011;4642;51.364;6.788;2023-07-16T07:33:51;10.03;;;4.27;;
9214;SDS011;4642;51.364;6.788;2023-07-16T07:36:18;6.03;;;3.80;;
9214;SDS011;4642;51.364;6.788;2023-07-16T07:38:44;9.17;;;3.60;;
9214;SDS011;4642;51.364;6.788;2023-07-16T07:41:10;10.57;;;4.43;;
9214;SDS011;4642;51.364;6.788;2023-07-16T07:43:35;10.07;;;4.60;;
9214;SDS011;4642;51.364;6.788;2023-07-16T07:46:01;12.57;;;4.03;;
9214;SDS011;4642;51.364;6.788;2023-07-16T07:48:26;11.87;;;3.53;;
9214;SDS011;4642;51.364;6.788;2023-07-16T07:50:52;9.23;;;4.10;;
9214;SDS011;4642;51.364;6.788;2023-07-16T07:53:17;9.03;;;4.30;;
9214;SDS011;4642;51.364;6.788;2023-07-16T07:55:44;9.43;;;4.23;;
9214;SDS011;4642;51.364;6.788;2023-07-16T07:58:10;11.23;;;4.63;;
9214;SDS011;4642;51.364;6.788;2023-07-16T08:00:35;7.93;;;4.30;;
9214;SDS011;4642;51.364;6.788;2023-07-16T08:03:01;5.90;;;4.13;;
9214;SDS011;4642;51.364;6.788;2023-07-16T08:05:27;9.87;;;4.00;;
9214;SDS011;4642;51.364;6.788;2023-07-16T08:07:52;7.43;;;3.90;;
9214;SDS011;4642;51.364;6.788;2023-07-16T08:10:18;8.73;;;3.97;;
9214;SDS011;4642;51.364;6.788;2023-07-16T08:12:44;10.40;;;4.17;;
9214;SDS011;4642;51.364;6.788;2023-07-16T08:15:10;6.47;;;4.00;;
9214;SDS011;4642;51.364;6.788;2023-07-16T08:17:42;10.33;;;4.10;;
9214;SDS011;4642;51.364;6.788;2023-07-16T08:20:09;9.53;;;4.40;;
9214;SDS011;4642;51.364;6.788;2023-07-16T08:22:35;11.33;;;4.00;;
9214;SDS011;4642;51.364;6.788;2023-07-16T08:25:01;11.27;;;4.17;;
9214;SDS011;4642;51.364;6.788;2023-07-16T08:27:28;11.23;;;4.33;;
9214;SDS011;4642;51.364;6.788;2023-07-16T08:29:54;14.37;;;4.67;;
9214;SDS011;4642;51.364;6.788;2023-07-16T08:32:19;13.30;;;3.80;;
9214;SDS011;4642;51.364;6.788;2023-07-16T08:34:46;7.50;;;4.47;;
9214;SDS011;4642;51.364;6.788;2023-07-16T08:37:11;8.53;;;4.00;;
9214;SDS011;4642;51.364;6.788;2023-07-16T08:39:37;7.03;;;3.60;;
9214;SDS011;4642;51.364;6.788;2023-07-16T08:42:03;8.50;;;3.93;;
9214;SDS011;4642;51.364;6.788;2023-07-16T08:44:29;7.90;;;4.20;;
9214;SDS011;4642;51.364;6.788;2023-07-16T08:46:55;7.17;;;3.80;;
9214;SDS011;4642;51.364;6.788;2023-07-16T08:49:21;8.33;;;4.13;;
9214;SDS011;4642;51.364;6.788;2023-07-16T08:51:48;7.80;;;3.37;;
9214;SDS011;4642;51.364;6.788;2023-07-16T08:54:14;8.17;;;3.70;;
9214;SDS011;4642;51.364;6.788;2023-07-16T08:56:44;11.93;;;3.83;;
9214;SDS011;4642;51.364;6.788;2023-07-16T08:59:12;15.67;;;4.00;;
9214;SDS011;4642;51.364;6.788;2023-07-16T09:01:39;6.83;;;3.73;;
9214;SDS011;4642;51.364;6.788;2023-07-16T09:04:05;9.83;;;3.77;;
9214;SDS011;4642;51.364;6.788;2023-07-16T09:06:30;9.80;;;3.63;;
9214;SDS011;4642;51.364;6.788;2023-07-16T09:08:56;7.70;;;3.37;;
9214;SDS011;4642;51.364;6.788;2023-07-16T09:11:21;9.37;;;3.67;;
9214;SDS011;4642;51.364;6.788;2023-07-16T09:13:47;7.90;;;3.50;;
9214;SDS011;4642;51.364;6.788;2023-07-16T09:16:13;9.77;;;4.20;;
9214;SDS011;4642;51.364;6.788;2023-07-16T09:18:42;6.87;;;3.27;;
9214;SDS011;4642;51.364;6.788;2023-07-16T09:21:08;5.80;;;3.40;;
9214;SDS011;4642;51.364;6.788;2023-07-16T09:23:33;8.03;;;3.90;;
9214;SDS011;4642;51.364;6.788;2023-07-16T09:25:59;5.37;;;3.03;;
9214;SDS011;4642;51.364;6.788;2023-07-16T09:28:25;10.80;;;3.30;;
9214;SDS011;4642;51.364;6.788;2023-07-16T09:30:51;8.67;;;3.40;;
9214;SDS011;4642;51.364;6.788;2023-07-16T09:33:18;8.53;;;3.83;;
9214;SDS011;4642;51.364;6.788;2023-07-16T09:35:47;8.73;;;3.70;;
9214;SDS011;4642;51.364;6.788;2023-07-16T09:38:14;7.53;;;3.97;;
9214;SDS011;4642;51.364;6.788;2023-07-16T09:40:41;7.53;;;3.90;;
9214;SDS011;4642;51.364;6.788;2023-07-16T09:43:07;11.37;;;4.00;;
9214;SDS011;4642;51.364;6.788;2023-07-16T09:45:34;7.77;;;3.37;;
9214;SDS011;4642;51.364;6.788;2023-07-16T09:48:00;6.67;;;3.33;;
9214;SDS011;4642;51.364;6.788;2023-07-16T09:50:27;8.63;;;3.67;;
9214;SDS011;4642;51.364;6.788;2023-07-16T09:52:55;7.60;;;3.67;;
9214;SDS011;4642;51.364;6.788;2023-07-16T09:55:22;6.37;;;3.30;;
9214;SDS011;4642;51.364;6.788;2023-07-16T09:57:48;8.47;;;3.27;;
9214;SDS011;4642;51.364;6.788;2023-07-16T10:00:17;6.70;;;3.67;;
9214;SDS011;4642;51.364;6.788;2023-07-16T10:02:45;5.07;;;3.30;;
9214;SDS011;4642;51.364;6.788;2023-07-16T10:05:35;7.70;;;2.90;;
9214;SDS011;4642;51.364;6.788;2023-07-16T10:08:00;6.03;;;3.20;;
9214;SDS011;4642;51.364;6.788;2023-07-16T10:10:26;9.00;;;3.30;;
9214;SDS011;4642;51.364;6.788;2023-07-16T10:13:03;7.03;;;3.33;;
9214;SDS011;4642;51.364;6.788;2023-07-16T10:15:29;5.40;;;3.20;;
9214;SDS011;4642;51.364;6.788;2023-07-16T10:17:56;7.87;;;3.80;;
9214;SDS011;4642;51.364;6.788;2023-07-16T10:20:31;7.20;;;3.10;;
9214;SDS011;4642;51.364;6.788;2023-07-16T10:23:09;8.30;;;3.20;;
9214;SDS011;4642;51.364;6.788;2023-07-16T10:25:39;7.57;;;3.63;;
9214;SDS011;4642;51.364;6.788;2023-07-16T10:28:05;5.83;;;3.40;;
9214;SDS011;4642;51.364;6.788;2023-07-16T10:30:32;8.83;;;3.53;;
9214;SDS011;4642;51.364;6.788;2023-07-16T10:32:58;8.67;;;4.00;;
9214;SDS011;4642;51.364;6.788;2023-07-16T10:35:27;7.37;;;3.43;;
9214;SDS011;4642;51.364;6.788;2023-07-16T10:37:54;5.37;;;3.20;;
9214;SDS011;4642;51.364;6.788;2023-07-16T10:40:19;6.30;;;3.27;;
9214;SDS011;4642;51.364;6.788;2023-07-16T10:42:45;6.23;;;3.63;;
9214;SDS011;4642;51.364;6.788;2023-07-16T10:45:13;9.27;;;3.30;;
9214;SDS011;4642;51.364;6.788;2023-07-16T10:47:54;7.37;;;3.73;;
9214;SDS011;4642;51.364;6.788;2023-07-16T10:50:20;5.53;;;3.03;;
9214;SDS011;4642;51.364;6.788;2023-07-16T10:52:52;7.77;;;3.73;;
9214;SDS011;4642;51.364;6.788;2023-07-16T10:55:21;8.30;;;3.40;;
9214;SDS011;4642;51.364;6.788;2023-07-16T10:57:48;7.80;;;3.37;;
9214;SDS011;4642;51.364;6.788;2023-07-16T11:00:15;4.77;;;3.07;;
9214;SDS011;4642;51.364;6.788;2023-07-16T11:02:42;9.63;;;3.20;;
9214;SDS011;4642;51.364;6.788;2023-07-16T11:05:11;6.73;;;3.20;;
9214;SDS011;4642;51.364;6.788;2023-07-16T11:07:38;6.70;;;3.40;;
9214;SDS011;4642;51.364;6.788;2023-07-16T11:10:17;7.87;;;3.20;;
9214;SDS011;4642;51.364;6.788;2023-07-16T11:12:44;6.93;;;2.80;;
9214;SDS011;4642;51.364;6.788;2023-07-16T11:15:10;6.03;;;3.23;;
9214;SDS011;4642;51.364;6.788;2023-07-16T11:17:39;4.10;;;3.03;;
9214;SDS011;4642;51.364;6.788;2023-07-16T11:20:06;5.50;;;2.77;;
9214;SDS011;4642;51.364;6.788;2023-07-16T11:22:36;3.90;;;3.10;;
9214;SDS011;4642;51.364;6.788;2023-07-16T11:25:04;6.73;;;3.20;;
9214;SDS011;4642;51.364;6.788;2023-07-16T11:27:36;6.83;;;3.17;;
9214;SDS011;4642;51.364;6.788;2023-07-16T11:30:05;6.60;;;3.03;;
9214;SDS011;4642;51.364;6.788;2023-07-16T11:32:41;6.17;;;3.00;;
9214;SDS011;4642;51.364;6.788;2023-07-16T11:35:08;5.67;;;3.20;;
9214;SDS011;4642;51.364;6.788;2023-07-16T11:37:36;5.47;;;3.00;;
9214;SDS011;4642;51.364;6.788;2023-07-16T11:42:31;5.23;;;2.97;;
9214;SDS011;4642;51.364;6.788;2023-07-16T11:44:59;6.37;;;3.00;;
9214;SDS011;4642;51.364;6.788;2023-07-16T11:47:25;5.27;;;2.73;;
9214;SDS011;4642;51.364;6.788;2023-07-16T11:49:51;5.67;;;2.97;;
9214;SDS011;4642;51.364;6.788;2023-07-16T11:52:27;6.37;;;3.17;;
9214;SDS011;4642;51.364;6.788;2023-07-16T11:54:54;5.43;;;2.73;;
9214;SDS011;4642;51.364;6.788;2023-07-16T11:57:24;4.03;;;2.80;;
9214;SDS011;4642;51.364;6.788;2023-07-16T11:59:50;6.70;;;3.10;;
9214;SDS011;4642;51.364;6.788;2023-07-16T12:02:15;6.70;;;3.07;;
9214;SDS011;4642;51.364;6.788;2023-07-16T12:04:41;7.77;;;3.00;;
9214;SDS011;4642;51.364;6.788;2023-07-16T12:07:07;5.13;;;2.70;;
9214;SDS011;4642;51.364;6.788;2023-07-16T12:09:33;5.03;;;3.10;;
9214;SDS011;4642;51.364;6.788;2023-07-16T12:11:59;6.73;;;3.20;;
9214;SDS011;4642;51.364;6.788;2023-07-16T12:14:25;6.17;;;2.70;;
9214;SDS011;4642;51.364;6.788;2023-07-16T12:16:51;6.23;;;2.80;;
9214;SDS011;4642;51.364;6.788;2023-07-16T12:19:17;7.47;;;2.57;;
9214;SDS011;4642;51.364;6.788;2023-07-16T12:21:42;7.17;;;3.10;;
9214;SDS011;4642;51.364;6.788;2023-07-16T12:24:08;4.70;;;2.97;;
9214;SDS011;4642;51.364;6.788;2023-07-16T12:26:33;6.23;;;2.93;;
9214;SDS011;4642;51.364;6.788;2023-07-16T12:28:59;4.10;;;2.93;;
9214;SDS011;4642;51.364;6.788;2023-07-16T12:31:27;6.50;;;3.20;;
9214;SDS011;4642;51.364;6.788;2023-07-16T12:33:53;5.73;;;2.80;;
9214;SDS011;4642;51.364;6.788;2023-07-16T12:36:19;5.00;;;3.00;;
9214;SDS011;4642;51.364;6.788;2023-07-16T12:38:44;4.70;;;2.47;;
9214;SDS011;4642;51.364;6.788;2023-07-16T12:41:10;9.27;;;3.00;;
9214;SDS011;4642;51.364;6.788;2023-07-16T12:43:35;4.77;;;2.80;;
9214;SDS011;4642;51.364;6.788;2023-07-16T12:46:01;5.87;;;3.00;;
9214;SDS011;4642;51.364;6.788;2023-07-16T12:48:30;3.23;;;2.63;;
9214;SDS011;4642;51.364;6.788;2023-07-16T12:50:56;6.23;;;2.97;;
9214;SDS011;4642;51.364;6.788;2023-07-16T12:53:22;7.03;;;3.00;;
9214;SDS011;4642;51.364;6.788;2023-07-16T12:55:48;5.87;;;2.93;;
9214;SDS011;4642;51.364;6.788;2023-07-16T12:58:14;6.20;;;3.07;;
9214;SDS011;4642;51.364;6.788;2023-07-16T13:00:40;12.43;;;3.43;;
9214;SDS011;4642;51.364;6.788;2023-07-16T13:03:05;5.43;;;2.90;;
9214;SDS011;4642;51.364;6.788;2023-07-16T13:05:33;5.90;;;2.80;;
9214;SDS011;4642;51.364;6.788;2023-07-16T13:07:59;6.40;;;2.93;;
9214;SDS011;4642;51.364;6.788;2023-07-16T13:10:24;3.77;;;2.60;;
9214;SDS011;4642;51.364;6.788;2023-07-16T13:12:50;5.20;;;3.10;;
9214;SDS011;4642;51.364;6.788;2023-07-16T13:15:16;3.87;;;2.83;;
9214;SDS011;4642;51.364;6.788;2023-07-16T13:17:41;6.03;;;3.53;;
9214;SDS011;4642;51.364;6.788;2023-07-16T13:20:07;4.70;;;3.10;;
9214;SDS011;4642;51.364;6.788;2023-07-16T13:22:34;7.37;;;3.27;;
9214;SDS011;4642;51.364;6.788;2023-07-16T13:25:00;6.83;;;3.40;;
9214;SDS011;4642;51.364;6.788;2023-07-16T13:27:25;6.67;;;4.13;;
9214;SDS011;4642;51.364;6.788;2023-07-16T13:29:51;3.20;;;2.67;;
9214;SDS011;4642;51.364;6.788;2023-07-16T13:32:16;6.23;;;2.97;;
9214;SDS011;4642;51.364;6.788;2023-07-16T13:34:42;4.50;;;2.50;;
9214;SDS011;4642;51.364;6.788;2023-07-16T13:37:08;5.73;;;2.60;;
9214;SDS011;4642;51.364;6.788;2023-07-16T13:39:34;5.87;;;2.90;;
9214;SDS011;4642;51.364;6.788;2023-07-16T13:41:59;5.27;;;2.60;;
9214;SDS011;4642;51.364;6.788;2023-07-16T13:44:25;5.10;;;2.70;;
9214;SDS011;4642;51.364;6.788;2023-07-16T13:46:50;6.27;;;2.83;;
9214;SDS011;4642;51.364;6.788;2023-07-16T13:49:16;4.57;;;2.60;;
9214;SDS011;4642;51.364;6.788;2023-07-16T13:51:41;4.73;;;2.60;;
9214;SDS011;4642;51.364;6.788;2023-07-16T13:54:07;4.60;;;2.73;;
9214;SDS011;4642;51.364;6.788;2023-07-16T13:56:34;5.27;;;2.47;;
9214;SDS011;4642;51.364;6.788;2023-07-16T13:59:00;4.70;;;2.87;;
9214;SDS011;4642;51.364;6.788;2023-07-16T14:01:25;6.03;;;2.70;;
9214;SDS011;4642;51.364;6.788;2023-07-16T14:03:51;5.03;;;2.27;;
9214;SDS011;4642;51.364;6.788;2023-07-16T14:06:17;7.27;;;3.00;;
9214;SDS011;4642;51.364;6.788;2023-07-16T14:08:43;5.73;;;2.70;;
9214;SDS011;4642;51.364;6.788;2023-07-16T14:11:08;5.00;;;2.40;;
9214;SDS011;4642;51.364;6.788;2023-07-16T14:13:34;5.07;;;2.57;;
9214;SDS011;4642;51.364;6.788;2023-07-16T14:15:59;4.17;;;2.50;;
9214;SDS011;4642;51.364;6.788;2023-07-16T14:18:25;4.13;;;2.43;;
9214;SDS011;4642;51.364;6.788;2023-07-16T14:20:50;3.30;;;2.33;;
9214;SDS011;4642;51.364;6.788;2023-07-16T14:23:16;6.37;;;2.60;;
9214;SDS011;4642;51.364;6.788;2023-07-16T14:25:42;7.77;;;2.33;;
9214;SDS011;4642;51.364;6.788;2023-07-16T14:28:07;6.10;;;2.37;;
9214;SDS011;4642;51.364;6.788;2023-07-16T14:30:33;3.77;;;2.13;;
9214;SDS011;4642;51.364;6.788;2023-07-16T14:32:58;4.57;;;2.47;;
9214;SDS011;4642;51.364;6.788;2023-07-16T14:35:24;6.47;;;2.20;;
9214;SDS011;4642;51.364;6.788;2023-07-16T14:37:50;7.43;;;2.23;;
9214;SDS011;4642;51.364;6.788;2023-07-16T14:40:15;5.60;;;2.13;;
9214;SDS011;4642;51.364;6.788;2023-07-16T14:42:42;4.50;;;2.03;;
9214;SDS011;4642;51.364;6.788;2023-07-16T14:45:08;8.77;;;2.43;;
9214;SDS011;4642;51.364;6.788;2023-07-16T14:47:34;3.00;;;1.90;;
9214;SDS011;4642;51.364;6.788;2023-07-16T14:49:59;3.00;;;1.90;;
9214;SDS011;4642;51.364;6.788;2023-07-16T14:52:25;4.97;;;2.60;;
9214;SDS011;4642;51.364;6.788;2023-07-16T14:54:51;3.77;;;2.20;;
9214;SDS011;4642;51.364;6.788;2023-07-16T14:57:16;3.90;;;2.17;;
9214;SDS011;4642;51.364;6.788;2023-07-16T14:59:42;4.00;;;2.33;;
9214;SDS011;4642;51.364;6.788;2023-07-16T15:02:08;3.17;;;2.23;;
9214;SDS011;4642;51.364;6.788;2023-07-16T15:04:34;5.50;;;2.70;;
9214;SDS011;4642;51.364;6.788;2023-07-16T15:07:00;8.63;;;2.30;;
9214;SDS011;4642;51.364;6.788;2023-07-16T15:09:25;6.50;;;2.63;;
9214;SDS011;4642;51.364;6.788;2023-07-16T15:11:51;4.47;;;2.13;;
9214;SDS011;4642;51.364;6.788;2023-07-16T15:14:17;5.50;;;2.73;;
9214;SDS011;4642;51.364;6.788;2023-07-16T15:16:42;6.90;;;2.30;;
9214;SDS011;4642;51.364;6.788;2023-07-16T15:19:08;4.50;;;2.60;;